Time;durP1;ratioP1;P1;durP2;ratioP2;P2;SDS_P1;SDS_P2;PMS_P1;PMS_P2;Temp;Humidity;BMP_temperature;BMP_pressure;BME280_temperature;BME280_humidity;BME280_pressure;Samples;Min_cycle;Max_cycle;Signal;HPM_P1;HPM_P2
2021/04/28 00:00:10;;;;;;;;;;;9.60;24.10;;;;;;5073705;28;19908;-79
2021/04/28 00:02:36;;;;;;;;;;;9.60;24.10;;;;;;5072773;28;19913;-79
2021/04/28 00:05:03;;;;;;;;;;;9.50;24.10;;;;;;5073885;28;20022;-80
2021/04/28 00:07:28;;;;;;;;;;;9.50;24.10;;;;;;5068146;28;20422;-79
2021/04/28 00:09:54;;;;;;;;;;;9.50;24.20;;;;;;5069874;28;19952;-80
2021/04/28 00:12:19;;;;;;;;;;;9.50;24.20;;;;;;5056511;28;20392;-79
2021/04/28 00:14:45;;;;;;;;;;;9.50;24.30;;;;;;5071794;28;20007;-79
2021/04/28 00:17:10;;;;;;;;;;;9.50;24.30;;;;;;5072695;28;20345;-80
2021/04/28 00:19:36;;;;;;;;;;;9.40;24.30;;;;;;5076007;28;19917;-80
2021/04/28 00:22:01;;;;;;;;;;;9.40;24.30;;;;;;5075234;28;19912;-80
2021/04/28 00:24:27;;;;;;;;;;;9.40;24.30;;;;;;5073050;28;19920;-80
2021/04/28 00:26:52;;;;;;;;;;;9.40;24.40;;;;;;5073548;28;20403;-80
2021/04/28 00:29:18;;;;;;;;;;;9.30;24.40;;;;;;5073801;28;20380;-79
2021/04/28 00:31:43;;;;;;;;;;;9.30;24.40;;;;;;5073888;28;19912;-79
2021/04/28 00:34:09;;;;;;;;;;;9.20;24.40;;;;;;5075717;28;19999;-79
2021/04/28 00:36:34;;;;;;;;;;;9.20;24.50;;;;;;5074092;28;19909;-79
2021/04/28 00:39:00;;;;;;;;;;;9.10;24.50;;;;;;5074787;28;19985;-80
2021/04/28 00:41:25;;;;;;;;;;;9.10;24.50;;;;;;5067209;28;20001;-79
2021/04/28 00:43:51;;;;;;;;;;;9.00;24.50;;;;;;5073961;28;19923;-80
2021/04/28 00:46:17;;;;;;;;;;;9.00;24.60;;;;;;5072353;28;20420;-79
2021/04/28 00:48:42;;;;;;;;;;;8.90;24.50;;;;;;5075285;28;19912;-80
2021/04/28 00:51:08;;;;;;;;;;;8.80;24.50;;;;;;5075524;28;19909;-79
2021/04/28 00:53:34;;;;;;;;;;;8.80;24.60;;;;;;5074932;28;19917;-80
2021/04/28 00:56:00;;;;;;;;;;;8.70;24.60;;;;;;5075283;28;19913;-80
2021/04/28 00:58:26;;;;;;;;;;;8.70;24.70;;;;;;5058752;28;19927;-80
2021/04/28 01:00:52;;;;;;;;;;;8.60;24.70;;;;;;5074126;28;19927;-80
2021/04/28 01:03:36;;;;;;;;;;;8.60;24.70;;;;;;5071309;28;19916;-80
2021/04/28 01:06:04;;;;;;;;;;;8.60;24.80;;;;;;5075545;28;20110;-80
2021/04/28 01:08:30;;;;;;;;;;;8.50;24.70;;;;;;5074671;28;19923;-80
2021/04/28 01:10:56;;;;;;;;;;;8.50;24.80;;;;;;5074151;28;19920;-79
2021/04/28 01:13:22;;;;;;;;;;;8.50;24.90;;;;;;5073852;28;19920;-80
2021/04/28 01:15:48;;;;;;;;;;;8.50;24.90;;;;;;5073151;28;19916;-81
2021/04/28 01:18:14;;;;;;;;;;;8.40;24.90;;;;;;5068423;28;19940;-80
2021/04/28 01:20:40;;;;;;;;;;;8.40;24.90;;;;;;5056961;28;19960;-80
2021/04/28 01:23:06;;;;;;;;;;;8.30;24.90;;;;;;5073124;28;20326;-80
2021/04/28 01:25:33;;;;;;;;;;;8.30;25.00;;;;;;5068165;28;19923;-80
2021/04/28 01:28:06;;;;;;;;;;;8.20;25.00;;;;;;5075340;28;19909;-79
2021/04/28 01:30:37;;;;;;;;;;;8.20;25.10;;;;;;5076971;28;19975;-80
2021/04/28 01:33:03;;;;;;;;;;;8.20;25.10;;;;;;5078159;28;19951;-80
2021/04/28 01:35:29;;;;;;;;;;;8.10;25.10;;;;;;5067968;28;19920;-80
2021/04/28 01:37:55;;;;;;;;;;;8.10;25.10;;;;;;5076835;28;20280;-79
2021/04/28 01:40:22;;;;;;;;;;;8.10;25.10;;;;;;5075801;28;19909;-79
2021/04/28 01:42:49;;;;;;;;;;;8.00;25.20;;;;;;5077564;28;19967;-80
2021/04/28 01:45:15;;;;;;;;;;;8.00;25.20;;;;;;5075840;28;19932;-80
2021/04/28 01:47:41;;;;;;;;;;;8.00;25.30;;;;;;5075672;28;19930;-79
2021/04/28 01:50:11;;;;;;;;;;;8.00;25.30;;;;;;5076292;28;19912;-80
2021/04/28 01:52:37;;;;;;;;;;;8.00;25.30;;;;;;5071294;28;19920;-80
2021/04/28 01:55:03;;;;;;;;;;;8.00;25.30;;;;;;5078166;28;19915;-79
2021/04/28 01:57:29;;;;;;;;;;;8.00;25.30;;;;;;5065741;28;19924;-80
2021/04/28 01:59:54;;;;;;;;;;;8.00;25.40;;;;;;5067737;28;19908;-80
2021/04/28 02:02:20;;;;;;;;;;;7.90;25.40;;;;;;5077097;28;19963;-80
2021/04/28 02:04:46;;;;;;;;;;;7.90;25.40;;;;;;5073950;28;20016;-80
2021/04/28 02:07:13;;;;;;;;;;;7.90;25.40;;;;;;5076480;28;19922;-80
2021/04/28 02:09:38;;;;;;;;;;;7.90;25.50;;;;;;5077226;28;19961;-80
2021/04/28 02:12:04;;;;;;;;;;;7.90;25.50;;;;;;5075335;28;19917;-79
2021/04/28 02:14:30;;;;;;;;;;;7.90;25.50;;;;;;5076570;28;19923;-80
2021/04/28 02:16:56;;;;;;;;;;;7.80;25.50;;;;;;5074414;28;19919;-80
2021/04/28 02:19:22;;;;;;;;;;;7.80;25.50;;;;;;5074458;28;19912;-80
2021/04/28 02:21:49;;;;;;;;;;;7.80;25.60;;;;;;5056543;28;19916;-79
2021/04/28 02:24:14;;;;;;;;;;;7.80;25.60;;;;;;5069621;28;19912;-80
2021/04/28 02:26:40;;;;;;;;;;;7.80;25.70;;;;;;5062940;28;19976;-80
2021/04/28 02:29:09;;;;;;;;;;;7.80;25.70;;;;;;5069382;28;20003;-79
2021/04/28 02:31:35;;;;;;;;;;;7.80;25.70;;;;;;5062016;28;19916;-80
2021/04/28 02:34:02;;;;;;;;;;;7.70;25.70;;;;;;5061168;28;20299;-80
2021/04/28 02:36:30;;;;;;;;;;;7.60;25.70;;;;;;5072683;28;19917;-80
2021/04/28 02:39:00;;;;;;;;;;;7.60;25.80;;;;;;5075492;28;19952;-79
2021/04/28 02:41:26;;;;;;;;;;;7.60;25.80;;;;;;5074998;28;20357;-78
2021/04/28 02:43:52;;;;;;;;;;;7.50;25.80;;;;;;5076396;28;19961;-80
2021/04/28 02:46:18;;;;;;;;;;;7.50;25.90;;;;;;5074751;28;19912;-80
2021/04/28 02:48:45;;;;;;;;;;;7.50;25.90;;;;;;5056756;28;19972;-79
2021/04/28 02:51:11;;;;;;;;;;;7.40;25.90;;;;;;5064850;28;19913;-80
2021/04/28 02:53:37;;;;;;;;;;;7.40;26.00;;;;;;5072439;28;20461;-80
2021/04/28 02:56:03;;;;;;;;;;;7.30;26.00;;;;;;5076125;28;20451;-80
2021/04/28 02:58:28;;;;;;;;;;;7.20;26.00;;;;;;5073753;28;19955;-79
2021/04/28 03:00:55;;;;;;;;;;;7.20;26.00;;;;;;5076229;28;19951;-80
2021/04/28 03:03:21;;;;;;;;;;;7.10;26.10;;;;;;5074794;28;19924;-80
2021/04/28 03:05:53;;;;;;;;;;;7.00;26.00;;;;;;5072298;28;19912;-79
2021/04/28 03:08:19;;;;;;;;;;;7.00;26.10;;;;;;5075209;28;19962;-80
2021/04/28 03:10:46;;;;;;;;;;;6.90;26.10;;;;;;5074852;28;20002;-80
2021/04/28 03:13:11;;;;;;;;;;;6.90;26.20;;;;;;5074748;28;19923;-80
2021/04/28 03:15:37;;;;;;;;;;;6.90;26.20;;;;;;5075942;28;19913;-80
2021/04/28 03:18:03;;;;;;;;;;;6.80;26.20;;;;;;5074990;28;19969;-80
2021/04/28 03:20:28;;;;;;;;;;;6.80;26.30;;;;;;5070070;28;20459;-78
2021/04/28 03:22:54;;;;;;;;;;;6.80;26.30;;;;;;5072772;28;19912;-80
2021/04/28 03:25:19;;;;;;;;;;;6.80;26.40;;;;;;5070759;28;19909;-80
2021/04/28 03:27:45;;;;;;;;;;;6.80;26.40;;;;;;5078093;28;20393;-80
2021/04/28 03:30:10;;;;;;;;;;;6.70;26.40;;;;;;5075801;28;19912;-80
2021/04/28 03:32:36;;;;;;;;;;;6.70;26.50;;;;;;5074640;28;19970;-80
2021/04/28 03:35:02;;;;;;;;;;;6.70;26.50;;;;;;5077876;28;19912;-79
2021/04/28 03:37:28;;;;;;;;;;;6.70;26.50;;;;;;5076039;28;19959;-79
2021/04/28 03:39:53;;;;;;;;;;;6.70;26.50;;;;;;5082066;28;19935;-79
2021/04/28 03:42:22;;;;;;;;;;;6.60;26.50;;;;;;5073717;28;19923;-80
2021/04/28 03:44:47;;;;;;;;;;;6.60;26.60;;;;;;5075185;28;19909;-79
2021/04/28 03:47:13;;;;;;;;;;;6.50;26.60;;;;;;5074505;28;19919;-79
2021/04/28 03:49:38;;;;;;;;;;;6.50;26.60;;;;;;5073657;28;19990;-80
2021/04/28 03:52:04;;;;;;;;;;;6.50;26.70;;;;;;5074680;28;19920;-80
2021/04/28 03:54:29;;;;;;;;;;;6.50;26.80;;;;;;5068551;28;19956;-79
2021/04/28 03:56:55;;;;;;;;;;;6.50;26.80;;;;;;5073069;28;20288;-79
2021/04/28 03:59:20;;;;;;;;;;;6.50;26.90;;;;;;5072336;28;19923;-80
2021/04/28 04:01:46;;;;;;;;;;;6.50;26.90;;;;;;5074288;28;19993;-80
2021/04/28 04:04:11;;;;;;;;;;;6.60;26.90;;;;;;5073045;28;19913;-79
2021/04/28 04:06:37;;;;;;;;;;;6.60;27.00;;;;;;5074229;28;20334;-80
2021/04/28 04:09:03;;;;;;;;;;;6.60;27.00;;;;;;5074371;28;19912;-80
2021/04/28 04:11:29;;;;;;;;;;;6.60;27.00;;;;;;5061467;28;19963;-78
2021/04/28 04:13:55;;;;;;;;;;;6.60;27.40;;;;;;5062352;28;19916;-80
2021/04/28 04:16:27;;;;;;;;;;;6.60;27.00;;;;;;5073454;28;20412;-78
2021/04/28 04:18:53;;;;;;;;;;;6.60;27.00;;;;;;5074060;28;19999;-80
2021/04/28 04:21:18;;;;;;;;;;;6.60;27.00;;;;;;5079205;28;19955;-80
2021/04/28 04:23:44;;;;;;;;;;;6.60;27.10;;;;;;5078298;28;19916;-80
2021/04/28 04:26:09;;;;;;;;;;;6.60;27.10;;;;;;5073218;28;20269;-79
2021/04/28 04:28:35;;;;;;;;;;;6.60;27.20;;;;;;5062630;28;19920;-79
2021/04/28 04:31:00;;;;;;;;;;;6.60;27.10;;;;;;5074591;28;19924;-80
2021/04/28 04:33:26;;;;;;;;;;;6.70;27.20;;;;;;5072721;28;19927;-79
2021/04/28 04:35:54;;;;;;;;;;;6.70;27.20;;;;;;5074294;28;19951;-79
2021/04/28 04:38:19;;;;;;;;;;;6.80;27.20;;;;;;5071897;28;19909;-79
2021/04/28 04:40:48;;;;;;;;;;;6.80;27.20;;;;;;5074482;28;19970;-79
2021/04/28 04:43:13;;;;;;;;;;;6.90;27.20;;;;;;5074053;28;20365;-80
2021/04/28 04:45:38;;;;;;;;;;;7.00;27.20;;;;;;5070095;28;19967;-79
2021/04/28 04:48:05;;;;;;;;;;;7.10;27.20;;;;;;5071273;28;19913;-80
2021/04/28 04:50:31;;;;;;;;;;;7.10;27.10;;;;;;5073747;28;20339;-80
2021/04/28 04:52:56;;;;;;;;;;;7.20;27.10;;;;;;5073033;28;19924;-80
2021/04/28 04:55:23;;;;;;;;;;;7.20;27.10;;;;;;5074060;28;19912;-79
2021/04/28 04:57:51;;;;;;;;;;;7.20;27.10;;;;;;5073735;28;19927;-80
2021/04/28 05:00:18;;;;;;;;;;;7.30;27.10;;;;;;5074430;28;19920;-80
2021/04/28 05:02:43;;;;;;;;;;;7.40;27.20;;;;;;5071603;28;19912;-80
2021/04/28 05:05:09;;;;;;;;;;;7.40;27.20;;;;;;5063208;28;19919;-80
2021/04/28 05:07:35;;;;;;;;;;;7.50;27.20;;;;;;5074177;28;19912;-80
2021/04/28 05:10:00;;;;;;;;;;;7.50;27.20;;;;;;5075819;28;19912;-80
2021/04/28 05:12:26;;;;;;;;;;;7.60;27.30;;;;;;5077002;28;19916;-78
2021/04/28 05:14:51;;;;;;;;;;;7.60;27.30;;;;;;5076055;28;20441;-80
2021/04/28 05:17:17;;;;;;;;;;;7.60;27.30;;;;;;5076527;28;19913;-79
2021/04/28 05:19:42;;;;;;;;;;;7.70;27.30;;;;;;5076333;28;19921;-79
2021/04/28 05:22:07;;;;;;;;;;;8.00;27.40;;;;;;5068945;28;19943;-80
2021/04/28 05:24:33;;;;;;;;;;;8.80;27.50;;;;;;5076915;28;19920;-80
2021/04/28 05:26:58;;;;;;;;;;;11.50;27.00;;;;;;5066624;28;19920;-81
2021/04/28 05:29:24;;;;;;;;;;;14.50;25.80;;;;;;5078021;28;19931;-80
2021/04/28 05:31:49;;;;;;;;;;;17.30;24.40;;;;;;5062265;28;19917;-80
2021/04/28 05:34:15;;;;;;;;;;;19.60;23.50;;;;;;5067865;28;19919;-81
2021/04/28 05:36:40;;;;;;;;;;;21.70;23.10;;;;;;5074296;28;19916;-81
2021/04/28 05:39:06;;;;;;;;;;;23.30;22.70;;;;;;5075929;28;20340;-81
2021/04/28 05:41:31;;;;;;;;;;;24.90;22.70;;;;;;5080362;28;19919;-82
2021/04/28 05:43:57;;;;;;;;;;;26.50;22.30;;;;;;5085176;28;19919;-82
2021/04/28 05:46:24;;;;;;;;;;;27.90;22.00;;;;;;5083697;28;20516;-77
2021/04/28 05:48:49;;;;;;;;;;;29.10;21.70;;;;;;5078070;28;19912;-80
2021/04/28 05:51:15;;;;;;;;;;;30.20;21.40;;;;;;5084210;28;19920;-82
2021/04/28 05:53:40;;;;;;;;;;;31.20;21.20;;;;;;5077929;28;19959;-82
2021/04/28 05:56:06;;;;;;;;;;;32.30;20.90;;;;;;5066317;28;19915;-80
2021/04/28 05:58:32;;;;;;;;;;;33.90;20.60;;;;;;5073879;28;19979;-82
2021/04/28 06:00:58;;;;;;;;;;;35.20;20.10;;;;;;5087918;28;20040;-81
2021/04/28 06:03:23;;;;;;;;;;;35.60;19.70;;;;;;5080575;28;20404;-82
2021/04/28 06:05:49;;;;;;;;;;;37.20;19.50;;;;;;5067947;28;19908;-81
2021/04/28 06:08:16;;;;;;;;;;;38.70;19.20;;;;;;5081466;28;19958;-81
2021/04/28 06:10:41;;;;;;;;;;;40.10;18.90;;;;;;5085551;28;19947;-81
2021/04/28 06:13:07;;;;;;;;;;;41.30;18.70;;;;;;5083121;28;19931;-80
2021/04/28 06:15:32;;;;;;;;;;;42.20;18.50;;;;;;5063873;28;20262;-81
2021/04/28 06:17:58;;;;;;;;;;;43.10;18.30;;;;;;5081132;28;19916;-81
2021/04/28 06:20:23;;;;;;;;;;;44.10;18.30;;;;;;5078038;28;19920;-82
2021/04/28 06:22:49;;;;;;;;;;;44.90;18.20;;;;;;5080371;28;20458;-82
2021/04/28 06:25:14;;;;;;;;;;;45.70;18.10;;;;;;5083377;28;19913;-83
2021/04/28 06:27:40;;;;;;;;;;;46.20;17.90;;;;;;5085594;28;19973;-83
2021/04/28 06:30:07;;;;;;;;;;;46.30;17.70;;;;;;5078818;28;19919;-82
2021/04/28 06:32:32;;;;;;;;;;;46.50;17.70;;;;;;5079013;28;19920;-83
2021/04/28 06:34:58;;;;;;;;;;;46.90;17.60;;;;;;5084392;28;19987;-83
2021/04/28 06:37:23;;;;;;;;;;;47.40;17.70;;;;;;5082498;28;19935;-82
2021/04/28 06:39:49;;;;;;;;;;;47.70;17.50;;;;;;5083841;28;19913;-83
2021/04/28 06:42:14;;;;;;;;;;;48.00;17.40;;;;;;5085045;28;19917;-83
2021/04/28 06:44:40;;;;;;;;;;;47.90;17.20;;;;;;5073775;28;19912;-83
2021/04/28 06:47:06;;;;;;;;;;;47.60;17.00;;;;;;5070538;28;19913;-81
2021/04/28 06:49:31;;;;;;;;;;;47.80;17.10;;;;;;5079351;28;20007;-83
2021/04/28 06:51:59;;;;;;;;;;;48.30;17.10;;;;;;5081503;28;19960;-83
2021/04/28 06:54:25;;;;;;;;;;;48.60;16.90;;;;;;5082050;28;19920;-83
2021/04/28 06:56:50;;;;;;;;;;;49.20;17.00;;;;;;5085945;28;19912;-83
2021/04/28 06:59:18;;;;;;;;;;;49.70;16.80;;;;;;5074898;28;19913;-83
2021/04/28 07:01:51;;;;;;;;;;;50.30;16.80;;;;;;5078966;28;20277;-83
2021/04/28 07:04:19;;;;;;;;;;;50.80;16.40;;;;;;5084565;28;19927;-83
2021/04/28 07:06:45;;;;;;;;;;;49.40;15.60;;;;;;5086221;28;19920;-82
2021/04/28 07:09:12;;;;;;;;;;;44.60;16.40;;;;;;5072291;28;19912;-82
2021/04/28 07:11:38;;;;;;;;;;;40.10;17.70;;;;;;5073255;28;19966;-82
2021/04/28 07:14:03;;;;;;;;;;;37.60;18.30;;;;;;5064529;28;20410;-81
2021/04/28 07:16:29;;;;;;;;;;;35.90;18.50;;;;;;5078190;28;19920;-82
2021/04/28 07:18:54;;;;;;;;;;;34.40;18.90;;;;;;5078150;28;19913;-82
2021/04/28 07:21:20;;;;;;;;;;;33.20;18.60;;;;;;5073745;28;20058;-80
2021/04/28 07:23:45;;;;;;;;;;;31.30;19.30;;;;;;5085489;28;19924;-81
2021/04/28 07:26:12;;;;;;;;;;;31.00;19.50;;;;;;5072252;28;19983;-82
2021/04/28 07:28:37;;;;;;;;;;;30.80;19.90;;;;;;5082387;28;19913;-81
2021/04/28 07:31:03;;;;;;;;;;;29.70;20.00;;;;;;5075458;28;19966;-80
2021/04/28 07:33:28;;;;;;;;;;;29.00;20.40;;;;;;5083873;28;19912;-81
2021/04/28 07:35:54;;;;;;;;;;;30.30;20.60;;;;;;5084394;28;19938;-81
2021/04/28 07:38:19;;;;;;;;;;;31.90;19.20;;;;;;5082701;28;19922;-82
2021/04/28 07:40:45;;;;;;;;;;;34.80;19.20;;;;;;5082869;28;19966;-82
2021/04/28 07:43:11;;;;;;;;;;;35.80;18.30;;;;;;5076607;28;20380;-81
2021/04/28 07:45:36;;;;;;;;;;;36.10;18.10;;;;;;5064279;28;19915;-82
2021/04/28 07:48:05;;;;;;;;;;;37.20;18.60;;;;;;5074948;28;20467;-81
2021/04/28 07:50:31;;;;;;;;;;;39.20;18.20;;;;;;5084054;28;20382;-81
2021/04/28 07:52:56;;;;;;;;;;;40.70;17.30;;;;;;5078261;28;19916;-82
2021/04/28 07:55:22;;;;;;;;;;;40.60;17.60;;;;;;5085008;28;19915;-82
2021/04/28 07:57:47;;;;;;;;;;;41.70;17.50;;;;;;5072327;28;19921;-81
2021/04/28 08:00:13;;;;;;;;;;;40.20;17.20;;;;;;5081083;28;19919;-82
2021/04/28 08:02:39;;;;;;;;;;;41.00;17.50;;;;;;5082495;28;19916;-82
2021/04/28 08:05:05;;;;;;;;;;;43.40;17.40;;;;;;5082528;28;20342;-82
2021/04/28 08:07:31;;;;;;;;;;;44.70;16.70;;;;;;5083791;28;19984;-82
2021/04/28 08:09:56;;;;;;;;;;;45.50;16.70;;;;;;5082036;28;19920;-82
2021/04/28 08:12:21;;;;;;;;;;;46.20;16.60;;;;;;5074668;28;19912;-82
2021/04/28 08:14:47;;;;;;;;;;;46.50;16.40;;;;;;5077211;28;19975;-81
2021/04/28 08:17:13;;;;;;;;;;;46.80;17.10;;;;;;5084955;28;19947;-81
2021/04/28 08:19:38;;;;;;;;;;;46.80;16.40;;;;;;5084605;28;19916;-82
2021/04/28 08:22:04;;;;;;;;;;;46.90;16.50;;;;;;5084280;28;19939;-83
2021/04/28 08:24:29;;;;;;;;;;;46.90;16.50;;;;;;5085552;28;19916;-83
2021/04/28 08:26:55;;;;;;;;;;;47.00;16.60;;;;;;5081819;28;19959;-81
2021/04/28 08:29:20;;;;;;;;;;;47.20;16.70;;;;;;5068880;28;19913;-82
2021/04/28 08:31:46;;;;;;;;;;;47.30;16.70;;;;;;5082585;28;19913;-82
2021/04/28 08:34:11;;;;;;;;;;;47.50;16.50;;;;;;5084027;28;19920;-82
2021/04/28 08:36:37;;;;;;;;;;;47.60;16.60;;;;;;5079835;28;19913;-81
2021/04/28 08:39:07;;;;;;;;;;;47.70;16.60;;;;;;5077155;28;19912;-82
2021/04/28 08:41:33;;;;;;;;;;;47.40;16.50;;;;;;5081136;28;19913;-82
2021/04/28 08:43:59;;;;;;;;;;;47.50;16.60;;;;;;5073893;28;19966;-82
2021/04/28 08:46:25;;;;;;;;;;;47.70;16.80;;;;;;5073176;28;19928;-82
2021/04/28 08:48:50;;;;;;;;;;;47.30;16.50;;;;;;5074704;28;19913;-82
2021/04/28 08:51:16;;;;;;;;;;;46.80;16.50;;;;;;5083304;28;19935;-82
2021/04/28 08:53:42;;;;;;;;;;;46.50;16.80;;;;;;5083579;28;19995;-81
2021/04/28 08:56:08;;;;;;;;;;;46.20;16.60;;;;;;5079296;28;19938;-82
2021/04/28 08:58:34;;;;;;;;;;;45.70;16.40;;;;;;5072952;28;19947;-82
2021/04/28 09:00:59;;;;;;;;;;;45.40;16.50;;;;;;5079663;28;19966;-82
2021/04/28 09:03:41;;;;;;;;;;;45.10;16.70;;;;;;5082008;28;19917;-82
2021/04/28 09:06:27;;;;;;;;;;;45.10;16.50;;;;;;5084409;28;19915;-81
2021/04/28 09:08:53;;;;;;;;;;;45.30;16.50;;;;;;5083903;28;19912;-82
2021/04/28 09:11:37;;;;;;;;;;;45.50;16.60;;;;;;5085169;28;19908;-82
2021/04/28 09:14:03;;;;;;;;;;;45.60;16.60;;;;;;5087701;28;19917;-82
2021/04/28 09:16:29;;;;;;;;;;;45.70;16.70;;;;;;5083645;28;19916;-78
2021/04/28 09:18:54;;;;;;;;;;;45.40;16.50;;;;;;5081554;28;20445;-82
2021/04/28 09:21:40;;;;;;;;;;;45.00;16.50;;;;;;5083382;28;19919;-81
2021/04/28 09:24:28;;;;;;;;;;;44.80;16.40;;;;;;5082758;28;19920;-82
2021/04/28 09:26:54;;;;;;;;;;;44.60;16.70;;;;;;5056064;28;19920;-82
2021/04/28 09:29:21;;;;;;;;;;;44.80;16.70;;;;;;5088086;28;19950;-82
2021/04/28 09:31:54;;;;;;;;;;;44.80;16.80;;;;;;5082507;28;19908;-82
2021/04/28 09:34:36;;;;;;;;;;;44.60;16.80;;;;;;5082392;28;19908;-82
2021/04/28 09:37:03;;;;;;;;;;;44.10;16.90;;;;;;5084474;28;19909;-82
2021/04/28 09:39:28;;;;;;;;;;;44.10;17.10;;;;;;5065631;28;19920;-81
2021/04/28 09:41:56;;;;;;;;;;;43.90;16.50;;;;;;5080417;28;20303;-81
2021/04/28 09:44:30;;;;;;;;;;;43.40;16.60;;;;;;5081691;28;19912;-82
2021/04/28 09:46:59;;;;;;;;;;;43.10;16.70;;;;;;5085389;28;19940;-80
2021/04/28 09:49:25;;;;;;;;;;;42.70;16.70;;;;;;5079685;28;19920;-82
2021/04/28 09:51:55;;;;;;;;;;;42.40;16.60;;;;;;5065782;28;20018;-82
2021/04/28 09:54:26;;;;;;;;;;;41.90;16.40;;;;;;5063151;28;19951;-82
2021/04/28 09:56:52;;;;;;;;;;;41.70;16.40;;;;;;5082787;28;19971;-82
2021/04/28 09:59:18;;;;;;;;;;;41.80;16.50;;;;;;5084766;28;19920;-83
2021/04/28 10:01:43;;;;;;;;;;;41.60;16.40;;;;;;5080895;28;19927;-82
2021/04/28 10:04:09;;;;;;;;;;;41.20;16.30;;;;;;5088324;28;19944;-83
2021/04/28 10:06:48;;;;;;;;;;;41.00;16.40;;;;;;5098261;28;19916;-85
2021/04/28 10:09:35;;;;;;;;;;;41.20;16.60;;;;;;5097364;28;19979;-81
2021/04/28 10:12:02;;;;;;;;;;;41.30;16.60;;;;;;5075337;28;19912;-82
2021/04/28 10:14:28;;;;;;;;;;;41.00;16.50;;;;;;5082051;28;19924;-81
2021/04/28 10:16:54;;;;;;;;;;;40.50;16.60;;;;;;5087782;28;19983;-81
2021/04/28 10:19:21;;;;;;;;;;;40.20;16.50;;;;;;5086148;28;19952;-81
2021/04/28 10:21:47;;;;;;;;;;;39.90;16.80;;;;;;5088410;28;19924;-81
2021/04/28 10:24:13;;;;;;;;;;;40.30;16.90;;;;;;5077901;28;19912;-81
2021/04/28 10:26:39;;;;;;;;;;;39.90;16.60;;;;;;5085238;28;19920;-81
2021/04/28 10:29:06;;;;;;;;;;;39.60;16.70;;;;;;5086665;28;20356;-82
2021/04/28 10:31:32;;;;;;;;;;;39.50;16.70;;;;;;5088732;28;19909;-82
2021/04/28 10:33:58;;;;;;;;;;;39.40;16.60;;;;;;5089748;28;19912;-82
2021/04/28 10:36:24;;;;;;;;;;;39.10;16.50;;;;;;5088314;28;19912;-82
2021/04/28 10:38:50;;;;;;;;;;;39.00;16.30;;;;;;5086493;28;19919;-82
2021/04/28 10:41:35;;;;;;;;;;;38.90;16.30;;;;;;5071726;28;19939;-82
2021/04/28 10:44:00;;;;;;;;;;;38.70;16.20;;;;;;5067066;28;20015;-81
2021/04/28 10:46:26;;;;;;;;;;;38.80;16.20;;;;;;5086705;28;19972;-82
2021/04/28 10:48:52;;;;;;;;;;;39.20;15.90;;;;;;5087616;28;19934;-84
2021/04/28 10:51:37;;;;;;;;;;;40.00;16.00;;;;;;5088502;28;19913;-82
2021/04/28 10:54:21;;;;;;;;;;;40.40;15.80;;;;;;5087967;28;20014;-81
2021/04/28 10:57:02;;;;;;;;;;;40.20;15.50;;;;;;5085017;28;20384;-81
2021/04/28 10:59:37;;;;;;;;;;;40.30;15.70;;;;;;5079931;28;19966;-82
2021/04/28 11:02:04;;;;;;;;;;;40.00;15.60;;;;;;5086786;28;19920;-81
2021/04/28 11:04:30;;;;;;;;;;;39.60;15.50;;;;;;5086436;28;19908;-82
2021/04/28 11:06:55;;;;;;;;;;;39.30;15.60;;;;;;5087746;28;19948;-83
2021/04/28 11:09:21;;;;;;;;;;;39.10;15.80;;;;;;5081049;28;19913;-81
2021/04/28 11:11:48;;;;;;;;;;;39.10;16.00;;;;;;5087634;28;19913;-85
2021/04/28 11:14:24;;;;;;;;;;;39.20;16.10;;;;;;5086332;28;19917;-82
2021/04/28 11:16:53;;;;;;;;;;;39.30;16.20;;;;;;5088259;28;19972;-81
2021/04/28 11:19:35;;;;;;;;;;;38.80;16.10;;;;;;5082097;28;19913;-81
2021/04/28 11:22:06;;;;;;;;;;;38.40;16.10;;;;;;5082412;28;19921;-81
2021/04/28 11:24:51;;;;;;;;;;;37.90;16.20;;;;;;5070035;28;19909;-79
2021/04/28 11:27:35;;;;;;;;;;;37.80;16.30;;;;;;5075373;28;19920;-79
2021/04/28 11:30:00;;;;;;;;;;;37.70;16.40;;;;;;5074741;28;19912;-79
2021/04/28 11:32:27;;;;;;;;;;;37.60;16.50;;;;;;5083955;28;19958;-79
2021/04/28 11:34:53;;;;;;;;;;;37.70;16.60;;;;;;5084184;28;19990;-79
2021/04/28 11:37:18;;;;;;;;;;;37.60;16.30;;;;;;5082186;28;19952;-79
2021/04/28 11:39:45;;;;;;;;;;;37.10;16.10;;;;;;5067064;28;19935;-79
2021/04/28 11:42:11;;;;;;;;;;;36.60;16.10;;;;;;5076406;28;20021;-79
2021/04/28 11:44:37;;;;;;;;;;;36.40;16.00;;;;;;5064591;28;19931;-79
2021/04/28 11:47:06;;;;;;;;;;;36.10;16.00;;;;;;5078319;28;19908;-78
2021/04/28 11:49:32;;;;;;;;;;;35.90;16.10;;;;;;5083941;28;19909;-79
2021/04/28 11:51:57;;;;;;;;;;;36.30;16.70;;;;;;5083652;28;19917;-79
2021/04/28 11:54:23;;;;;;;;;;;36.50;16.10;;;;;;5080558;28;19931;-79
2021/04/28 11:56:48;;;;;;;;;;;37.00;16.00;;;;;;5072044;28;19935;-80
2021/04/28 11:59:40;;;;;;;;;;;37.00;15.80;;;;;;5080141;28;19926;-79
2021/04/28 12:02:07;;;;;;;;;;;37.10;15.60;;;;;;5077493;28;19917;-79
2021/04/28 12:04:33;;;;;;;;;;;36.70;15.50;;;;;;5081522;28;19912;-79
2021/04/28 12:06:59;;;;;;;;;;;36.20;15.40;;;;;;5080717;28;19959;-79
2021/04/28 12:09:39;;;;;;;;;;;35.80;15.60;;;;;;5083496;28;19917;-82
2021/04/28 12:12:10;;;;;;;;;;;35.80;15.60;;;;;;5085642;28;19919;-82
2021/04/28 12:14:37;;;;;;;;;;;36.00;15.70;;;;;;5071933;28;19916;-82
2021/04/28 12:17:02;;;;;;;;;;;36.20;15.50;;;;;;5076421;28;19926;-82
2021/04/28 12:19:28;;;;;;;;;;;35.90;15.50;;;;;;5078454;28;19987;-82
2021/04/28 12:22:00;;;;;;;;;;;35.50;15.40;;;;;;5081422;28;19916;-82
2021/04/28 12:24:32;;;;;;;;;;;35.50;15.70;;;;;;5070792;28;19913;-82
2021/04/28 12:27:02;;;;;;;;;;;35.40;15.60;;;;;;5072337;28;19967;-82
2021/04/28 12:29:27;;;;;;;;;;;35.10;15.60;;;;;;5082722;28;19917;-82
2021/04/28 12:31:53;;;;;;;;;;;35.20;15.80;;;;;;5081216;28;19952;-81
2021/04/28 12:34:19;;;;;;;;;;;35.40;15.80;;;;;;5083924;28;20034;-83
2021/04/28 12:36:45;;;;;;;;;;;35.00;15.80;;;;;;5080091;28;19966;-81
2021/04/28 12:39:10;;;;;;;;;;;34.60;16.00;;;;;;5084230;28;19943;-82
2021/04/28 12:41:36;;;;;;;;;;;34.30;16.00;;;;;;5080769;28;19936;-82
2021/04/28 12:44:02;;;;;;;;;;;34.00;16.20;;;;;;5080782;28;19935;-82
2021/04/28 12:46:29;;;;;;;;;;;33.60;16.20;;;;;;5068581;28;19927;-81
2021/04/28 12:49:00;;;;;;;;;;;33.60;16.40;;;;;;5068387;28;19913;-82
2021/04/28 12:51:26;;;;;;;;;;;33.50;16.30;;;;;;5079634;28;19919;-82
2021/04/28 12:53:52;;;;;;;;;;;33.30;16.40;;;;;;5078596;28;19919;-81
2021/04/28 12:56:17;;;;;;;;;;;33.30;16.40;;;;;;5084992;28;19944;-82
2021/04/28 12:58:44;;;;;;;;;;;33.10;16.40;;;;;;5084896;28;19958;-82
2021/04/28 13:01:14;;;;;;;;;;;32.70;16.40;;;;;;5080652;28;20002;-82
2021/04/28 13:03:41;;;;;;;;;;;32.30;16.40;;;;;;5084972;28;19917;-82
2021/04/28 13:06:06;;;;;;;;;;;32.10;16.40;;;;;;5073491;28;19935;-82
2021/04/28 13:08:36;;;;;;;;;;;31.90;16.40;;;;;;5077781;28;19912;-81
2021/04/28 13:11:11;;;;;;;;;;;31.90;16.40;;;;;;5083179;28;19935;-81
2021/04/28 13:13:36;;;;;;;;;;;31.90;16.40;;;;;;5076683;28;19916;-82
2021/04/28 13:16:03;;;;;;;;;;;31.90;16.30;;;;;;5072954;28;19917;-81
2021/04/28 13:18:28;;;;;;;;;;;31.80;16.30;;;;;;5077438;28;20405;-82
2021/04/28 13:20:54;;;;;;;;;;;31.70;16.40;;;;;;5077877;28;19938;-81
2021/04/28 13:23:20;;;;;;;;;;;31.60;16.90;;;;;;5087393;28;19920;-82
2021/04/28 13:25:49;;;;;;;;;;;31.60;16.50;;;;;;5086088;28;19983;-82
2021/04/28 13:28:33;;;;;;;;;;;31.40;16.40;;;;;;5080650;28;19915;-82
2021/04/28 13:31:13;;;;;;;;;;;31.00;16.40;;;;;;5087086;28;20380;-81
2021/04/28 13:33:39;;;;;;;;;;;30.80;16.50;;;;;;5075644;28;19920;-81
2021/04/28 13:36:17;;;;;;;;;;;30.80;16.60;;;;;;5086878;28;19909;-81
2021/04/28 13:38:53;;;;;;;;;;;30.50;16.60;;;;;;5084100;28;19912;-82
2021/04/28 13:41:19;;;;;;;;;;;30.70;16.80;;;;;;5073461;28;20012;-82
2021/04/28 13:43:44;;;;;;;;;;;30.80;16.70;;;;;;5078100;28;19917;-82
2021/04/28 13:46:10;;;;;;;;;;;30.90;16.80;;;;;;5081297;28;19944;-82
2021/04/28 13:48:35;;;;;;;;;;;31.00;16.80;;;;;;5074126;28;20384;-82
2021/04/28 13:51:01;;;;;;;;;;;30.80;16.80;;;;;;5068690;28;19916;-82
2021/04/28 13:53:26;;;;;;;;;;;30.50;16.80;;;;;;5086170;28;20101;-82
2021/04/28 13:55:54;;;;;;;;;;;30.40;16.90;;;;;;5087877;28;19913;-82
2021/04/28 13:58:19;;;;;;;;;;;30.40;17.00;;;;;;5090128;28;19913;-82
2021/04/28 14:00:45;;;;;;;;;;;30.40;17.00;;;;;;5078348;28;19920;-82
2021/04/28 14:03:10;;;;;;;;;;;30.40;17.00;;;;;;5072174;28;19928;-82
2021/04/28 14:05:36;;;;;;;;;;;30.30;17.00;;;;;;5083699;28;19939;-82
2021/04/28 14:08:01;;;;;;;;;;;30.20;17.00;;;;;;5084171;28;20463;-82
2021/04/28 14:10:28;;;;;;;;;;;30.20;17.00;;;;;;5082293;28;19920;-82
2021/04/28 14:12:53;;;;;;;;;;;30.30;17.10;;;;;;5083987;28;19921;-82
2021/04/28 14:15:19;;;;;;;;;;;30.50;17.10;;;;;;5083285;28;19927;-82
2021/04/28 14:17:44;;;;;;;;;;;30.60;17.10;;;;;;5085884;28;20011;-83
2021/04/28 14:20:10;;;;;;;;;;;30.60;17.00;;;;;;5087797;28;19912;-82